Time;durP1;ratioP1;P1;durP2;ratioP2;P2;SDS_P1;SDS_P2;PMS_P1;PMS_P2;Temp;Humidity;BMP_temperature;BMP_pressure;BME280_temperature;BME280_humidity;BME280_pressure;Samples;Min_cycle;Max_cycle;Signal;HPM_P1;HPM_P2
2022/11/14 00:01:37;;;;;;;20.55;13.95;;;;;;;;;;5017755;28;20065;-73
2022/11/14 00:04:04;;;;;;;23.63;15.55;;;;;;;;;;5017982;28;20106;-73
2022/11/14 00:06:30;;;;;;;22.60;15.25;;;;;;;;;;5028126;28;20053;-72
2022/11/14 00:08:57;;;;;;;21.42;15.02;;;;;;;;;;5017501;28;20054;-74
2022/11/14 00:11:23;;;;;;;24.52;16.10;;;;;;;;;;5016779;28;20058;-72
2022/11/14 00:13:49;;;;;;;25.27;16.10;;;;;;;;;;5017316;28;20593;-69
2022/11/14 00:16:15;;;;;;;23.33;17.02;;;;;;;;;;5021714;28;20050;-72
2022/11/14 00:18:42;;;;;;;24.15;15.95;;;;;;;;;;5013193;28;20096;-70
2022/11/14 00:21:08;;;;;;;24.95;16.58;;;;;;;;;;5036875;28;20539;-70
2022/11/14 00:23:35;;;;;;;26.58;16.38;;;;;;;;;;5017859;28;20058;-72
2022/11/14 00:26:01;;;;;;;29.38;17.52;;;;;;;;;;5017487;28;20081;-69
2022/11/14 00:28:27;;;;;;;28.08;17.27;;;;;;;;;;5020440;28;20065;-72
2022/11/14 00:30:54;;;;;;;27.05;17.80;;;;;;;;;;5020165;28;21012;-72
2022/11/14 00:33:20;;;;;;;29.65;17.70;;;;;;;;;;5013908;28;21112;-70
2022/11/14 00:35:50;;;;;;;29.85;18.75;;;;;;;;;;5006727;28;20081;-72
2022/11/14 00:38:17;;;;;;;31.05;18.00;;;;;;;;;;5010036;28;20057;-72
2022/11/14 00:40:43;;;;;;;27.67;18.92;;;;;;;;;;5010613;28;20518;-72
2022/11/14 00:43:09;;;;;;;32.35;19.42;;;;;;;;;;5003786;28;20050;-69
2022/11/14 00:45:36;;;;;;;33.67;20.65;;;;;;;;;;5003553;28;20055;-73
2022/11/14 00:48:02;;;;;;;32.42;19.75;;;;;;;;;;5019141;28;20165;-72
2022/11/14 00:50:28;;;;;;;32.60;20.48;;;;;;;;;;5020563;28;20050;-69
2022/11/14 00:52:54;;;;;;;29.42;18.85;;;;;;;;;;5016542;28;20516;-74
2022/11/14 00:55:21;;;;;;;29.00;19.90;;;;;;;;;;5018916;28;20054;-72
2022/11/14 00:57:47;;;;;;;32.47;20.30;;;;;;;;;;5006753;28;20066;-74
2022/11/14 01:00:13;;;;;;;29.83;19.55;;;;;;;;;;5015247;28;20133;-73
2022/11/14 01:02:40;;;;;;;32.65;20.98;;;;;;;;;;5017449;28;20495;-70
2022/11/14 01:05:06;;;;;;;31.45;20.17;;;;;;;;;;5017930;28;20054;-73
2022/11/14 01:07:33;;;;;;;27.83;19.55;;;;;;;;;;5017236;28;22192;-74
2022/11/14 01:09:59;;;;;;;34.33;21.10;;;;;;;;;;5015850;28;20537;-73
2022/11/14 01:12:25;;;;;;;32.83;19.75;;;;;;;;;;5019374;28;20053;-74
2022/11/14 01:14:51;;;;;;;34.78;22.25;;;;;;;;;;5021252;28;20053;-71
2022/11/14 01:17:18;;;;;;;28.40;20.08;;;;;;;;;;5018045;28;20056;-71
2022/11/14 01:19:44;;;;;;;34.80;22.05;;;;;;;;;;5005240;28;20054;-74
2022/11/14 01:22:10;;;;;;;33.08;22.02;;;;;;;;;;5017061;28;20054;-73
2022/11/14 01:24:37;;;;;;;31.65;20.23;;;;;;;;;;5008665;28;20049;-69
2022/11/14 01:27:03;;;;;;;34.83;21.08;;;;;;;;;;5019829;28;20089;-72
2022/11/14 01:29:29;;;;;;;35.60;22.38;;;;;;;;;;5009385;28;20046;-71
2022/11/14 01:31:56;;;;;;;34.25;20.50;;;;;;;;;;5013933;28;20060;-70
2022/11/14 01:34:22;;;;;;;33.70;20.63;;;;;;;;;;5009922;28;20055;-74
2022/11/14 01:36:48;;;;;;;36.25;22.10;;;;;;;;;;5008017;28;20050;-74
2022/11/14 01:39:15;;;;;;;38.13;22.63;;;;;;;;;;5006671;28;20054;-74
2022/11/14 01:41:41;;;;;;;35.20;22.45;;;;;;;;;;5019898;28;20045;-74
2022/11/14 01:44:12;;;;;;;33.25;21.38;;;;;;;;;;5012592;28;20145;-70
2022/11/14 01:46:39;;;;;;;38.25;22.95;;;;;;;;;;5010699;28;20058;-74
2022/11/14 01:49:26;;;;;;;38.60;22.25;;;;;;;;;;5015812;28;20061;-71
2022/11/14 01:51:58;;;;;;;37.80;21.98;;;;;;;;;;5017777;28;20065;-74
2022/11/14 01:54:26;;;;;;;38.65;24.05;;;;;;;;;;5009116;28;20051;-72
2022/11/14 01:56:57;;;;;;;39.35;21.90;;;;;;;;;;5013913;28;20046;-72
2022/11/14 01:59:26;;;;;;;40.15;23.38;;;;;;;;;;5012655;28;20682;-74
2022/11/14 02:01:53;;;;;;;37.45;22.65;;;;;;;;;;5006629;28;20050;-71
2022/11/14 02:04:23;;;;;;;38.33;22.83;;;;;;;;;;5012099;28;20691;-71
2022/11/14 02:06:50;;;;;;;37.75;22.45;;;;;;;;;;5016033;28;20054;-74
2022/11/14 02:09:17;;;;;;;37.85;23.88;;;;;;;;;;5017437;28;20591;-70
2022/11/14 02:11:44;;;;;;;40.45;23.55;;;;;;;;;;5014678;28;20081;-72
2022/11/14 02:14:11;;;;;;;38.75;22.70;;;;;;;;;;5011723;28;20472;-71
2022/11/14 02:16:39;;;;;;;39.63;23.52;;;;;;;;;;5006222;28;20051;-73
2022/11/14 02:19:06;;;;;;;43.38;23.90;;;;;;;;;;5020932;28;20050;-73
2022/11/14 02:21:33;;;;;;;33.80;22.10;;;;;;;;;;5018135;28;20061;-73
2022/11/14 02:23:59;;;;;;;41.65;23.77;;;;;;;;;;5023610;28;20524;-73
2022/11/14 02:26:25;;;;;;;46.28;23.67;;;;;;;;;;5026372;28;20061;-70
2022/11/14 02:28:52;;;;;;;41.72;23.23;;;;;;;;;;5022505;28;20045;-73
2022/11/14 02:31:18;;;;;;;40.67;22.73;;;;;;;;;;5021786;28;20663;-72
2022/11/14 02:33:44;;;;;;;42.25;25.08;;;;;;;;;;5025942;28;20594;-72
2022/11/14 02:36:11;;;;;;;43.00;24.02;;;;;;;;;;5006886;28;20077;-71
2022/11/14 02:38:37;;;;;;;44.45;23.52;;;;;;;;;;5019500;28;20050;-72
2022/11/14 02:41:04;;;;;;;40.05;24.63;;;;;;;;;;5011440;28;20607;-71
2022/11/14 02:43:30;;;;;;;44.55;23.50;;;;;;;;;;5012306;28;20448;-73
2022/11/14 02:45:56;;;;;;;43.90;24.65;;;;;;;;;;5009212;28;20050;-72
2022/11/14 02:48:30;;;;;;;46.95;25.75;;;;;;;;;;5019802;28;20587;-73
2022/11/14 02:50:57;;;;;;;47.38;24.65;;;;;;;;;;5022813;28;20058;-71
2022/11/14 02:53:23;;;;;;;47.03;25.25;;;;;;;;;;5011966;28;20050;-74
2022/11/14 02:55:49;;;;;;;42.35;24.13;;;;;;;;;;5013333;28;20587;-73
2022/11/14 02:58:15;;;;;;;41.90;23.25;;;;;;;;;;5010462;28;20065;-73
2022/11/14 03:00:42;;;;;;;44.50;24.67;;;;;;;;;;5014135;28;20285;-73
2022/11/14 03:03:28;;;;;;;41.15;22.95;;;;;;;;;;5015870;28;20054;-72
2022/11/14 03:06:02;;;;;;;45.30;24.90;;;;;;;;;;5011422;28;20697;-74
2022/11/14 03:08:28;;;;;;;42.67;24.40;;;;;;;;;;5015350;28;20046;-69
2022/11/14 03:10:55;;;;;;;40.75;23.33;;;;;;;;;;5021806;28;20566;-73
2022/11/14 03:13:21;;;;;;;40.38;23.95;;;;;;;;;;5021307;28;20555;-71
2022/11/14 03:15:47;;;;;;;45.03;24.58;;;;;;;;;;5013944;28;20046;-72
2022/11/14 03:18:14;;;;;;;45.63;24.35;;;;;;;;;;5003730;28;20062;-70
2022/11/14 03:20:40;;;;;;;44.15;24.98;;;;;;;;;;5005383;28;20575;-73
2022/11/14 03:23:07;;;;;;;36.75;22.20;;;;;;;;;;5018730;28;20515;-74
2022/11/14 03:25:33;;;;;;;45.80;25.02;;;;;;;;;;5021973;28;20058;-72
2022/11/14 03:27:59;;;;;;;42.65;24.90;;;;;;;;;;5013291;28;20069;-74
2022/11/14 03:30:25;;;;;;;46.15;24.73;;;;;;;;;;5015014;28;20069;-72
2022/11/14 03:32:52;;;;;;;43.05;23.77;;;;;;;;;;5019631;28;20456;-73
2022/11/14 03:35:18;;;;;;;43.83;23.45;;;;;;;;;;5003463;28;20069;-73
2022/11/14 03:37:44;;;;;;;45.20;23.52;;;;;;;;;;5013610;28;20390;-73
2022/11/14 03:40:11;;;;;;;50.05;25.52;;;;;;;;;;5015208;28;20432;-70
2022/11/14 03:42:37;;;;;;;49.33;25.40;;;;;;;;;;5021121;28;20165;-71
2022/11/14 03:45:04;;;;;;;41.00;23.17;;;;;;;;;;5020502;28;20607;-74
2022/11/14 03:47:31;;;;;;;43.22;23.52;;;;;;;;;;5015736;28;20580;-72
2022/11/14 03:49:57;;;;;;;45.50;23.63;;;;;;;;;;5005971;28;20133;-69
2022/11/14 03:52:24;;;;;;;45.58;23.60;;;;;;;;;;5019600;28;20467;-74
2022/11/14 03:54:51;;;;;;;46.15;24.40;;;;;;;;;;5008751;28;20050;-72
2022/11/14 03:57:17;;;;;;;44.70;23.95;;;;;;;;;;5020229;28;20056;-72
2022/11/14 03:59:43;;;;;;;43.67;24.73;;;;;;;;;;5020903;28;20054;-69
2022/11/14 04:02:10;;;;;;;47.03;24.48;;;;;;;;;;5012116;28;20062;-73
2022/11/14 04:04:36;;;;;;;42.65;22.92;;;;;;;;;;5014167;28;20057;-71
2022/11/14 04:07:03;;;;;;;42.13;23.83;;;;;;;;;;5008377;28;20054;-70
2022/11/14 04:09:29;;;;;;;44.80;24.05;;;;;;;;;;5015861;28;20077;-73
2022/11/14 04:11:55;;;;;;;45.15;23.90;;;;;;;;;;5012009;28;20049;-71
2022/11/14 04:14:22;;;;;;;46.70;24.23;;;;;;;;;;5020899;28;20058;-70
2022/11/14 04:16:48;;;;;;;43.85;23.55;;;;;;;;;;5019468;28;20810;-72
2022/11/14 04:19:14;;;;;;;43.65;24.77;;;;;;;;;;5005753;28;20141;-70
2022/11/14 04:21:40;;;;;;;42.15;22.63;;;;;;;;;;5015333;28;20537;-69
2022/11/14 04:24:07;;;;;;;43.72;22.88;;;;;;;;;;5012990;28;20124;-72
2022/11/14 04:26:36;;;;;;;45.85;24.73;;;;;;;;;;5004167;28;20050;-71
2022/11/14 04:29:03;;;;;;;42.30;23.02;;;;;;;;;;5007552;28;20054;-74
2022/11/14 04:31:29;;;;;;;44.85;23.15;;;;;;;;;;5022760;28;20065;-72
2022/11/14 04:33:55;;;;;;;46.25;24.23;;;;;;;;;;5016671;28;20058;-69
2022/11/14 04:36:21;;;;;;;48.17;25.52;;;;;;;;;;5005054;28;20054;-72
2022/11/14 04:38:48;;;;;;;45.25;23.35;;;;;;;;;;5014437;28;20444;-72
2022/11/14 04:41:14;;;;;;;48.20;24.25;;;;;;;;;;5024036;28;20050;-72
2022/11/14 04:43:40;;;;;;;44.53;22.50;;;;;;;;;;5024875;28;20549;-69
2022/11/14 04:46:13;;;;;;;42.90;23.75;;;;;;;;;;5019270;28;20054;-72
2022/11/14 04:48:39;;;;;;;43.97;23.08;;;;;;;;;;5014058;28;20046;-69
2022/11/14 04:51:06;;;;;;;43.42;22.65;;;;;;;;;;5021930;28;20050;-72
2022/11/14 04:53:32;;;;;;;41.70;22.80;;;;;;;;;;5022950;28;20636;-69
2022/11/14 04:55:58;;;;;;;46.00;24.13;;;;;;;;;;5021666;28;20059;-73
2022/11/14 04:58:25;;;;;;;43.95;23.20;;;;;;;;;;5024041;28;20054;-73
2022/11/14 05:00:51;;;;;;;40.95;22.23;;;;;;;;;;5014721;28;20050;-72
2022/11/14 05:03:18;;;;;;;38.90;21.15;;;;;;;;;;5024211;28;20046;-70
2022/11/14 05:05:45;;;;;;;41.70;22.08;;;;;;;;;;5021141;28;20076;-73
2022/11/14 05:08:11;;;;;;;39.00;21.05;;;;;;;;;;5026671;28;20061;-72
2022/11/14 05:10:41;;;;;;;40.85;23.15;;;;;;;;;;5023690;28;20057;-70
2022/11/14 05:13:08;;;;;;;41.15;22.48;;;;;;;;;;5022276;28;20118;-72
2022/11/14 05:15:34;;;;;;;38.15;20.27;;;;;;;;;;5020324;28;20053;-73
2022/11/14 05:18:00;;;;;;;37.35;19.75;;;;;;;;;;5023445;28;21010;-72
2022/11/14 05:20:27;;;;;;;41.30;23.00;;;;;;;;;;5018269;28;20054;-71
2022/11/14 05:22:54;;;;;;;41.65;20.98;;;;;;;;;;5019795;28;20061;-73
2022/11/14 05:25:21;;;;;;;46.97;23.38;;;;;;;;;;5020075;28;20112;-73
2022/11/14 05:27:48;;;;;;;38.60;19.27;;;;;;;;;;5017888;28;20046;-72
2022/11/14 05:30:14;;;;;;;43.97;23.23;;;;;;;;;;5011834;28;20482;-72
2022/11/14 05:32:41;;;;;;;40.25;20.70;;;;;;;;;;5021406;28;20054;-69
2022/11/14 05:35:07;;;;;;;40.35;21.92;;;;;;;;;;5018325;28;20054;-73
2022/11/14 05:37:34;;;;;;;41.92;21.58;;;;;;;;;;5016847;28;20524;-72
2022/11/14 05:40:00;;;;;;;36.38;20.63;;;;;;;;;;5005162;28;20046;-73
2022/11/14 05:42:27;;;;;;;36.67;19.48;;;;;;;;;;5020213;28;20060;-72
2022/11/14 05:44:53;;;;;;;43.30;21.27;;;;;;;;;;5020838;28;20061;-71
2022/11/14 05:47:19;;;;;;;39.53;20.45;;;;;;;;;;5005248;28;20157;-71
2022/11/14 05:49:46;;;;;;;41.28;20.77;;;;;;;;;;5004147;28;20512;-72
2022/11/14 05:52:12;;;;;;;43.13;22.50;;;;;;;;;;5015383;28;20245;-72
2022/11/14 05:54:38;;;;;;;34.75;19.55;;;;;;;;;;5004597;28;20042;-71
2022/11/14 05:57:05;;;;;;;36.05;18.83;;;;;;;;;;5004176;28;20480;-72
2022/11/14 05:59:31;;;;;;;39.60;21.48;;;;;;;;;;5006833;28;20574;-73
2022/11/14 06:01:57;;;;;;;34.33;19.45;;;;;;;;;;5018457;28;20117;-70
2022/11/14 06:04:23;;;;;;;40.25;20.00;;;;;;;;;;5021402;28;20057;-72
2022/11/14 06:06:50;;;;;;;37.88;21.02;;;;;;;;;;5019499;28;20622;-71
2022/11/14 06:09:16;;;;;;;39.33;20.15;;;;;;;;;;5021188;28;20057;-69
2022/11/14 06:11:42;;;;;;;40.55;21.58;;;;;;;;;;5022897;28;20046;-72
2022/11/14 06:14:09;;;;;;;39.28;19.73;;;;;;;;;;5018653;28;20054;-70
2022/11/14 06:16:37;;;;;;;39.83;20.77;;;;;;;;;;5024741;28;20050;-71
2022/11/14 06:19:04;;;;;;;39.13;19.50;;;;;;;;;;5015570;28;20655;-71
2022/11/14 06:21:30;;;;;;;35.40;19.42;;;;;;;;;;5012836;28;20668;-69
2022/11/14 06:23:56;;;;;;;37.70;20.10;;;;;;;;;;5009634;28;20476;-72
2022/11/14 06:26:24;;;;;;;37.30;19.85;;;;;;;;;;5015104;28;20053;-69
2022/11/14 06:28:51;;;;;;;36.30;19.15;;;;;;;;;;5017337;28;20638;-71
2022/11/14 06:31:18;;;;;;;35.53;18.77;;;;;;;;;;5007562;28;20089;-71
2022/11/14 06:33:45;;;;;;;34.35;18.52;;;;;;;;;;5021376;28;20054;-71
2022/11/14 06:36:12;;;;;;;38.53;20.13;;;;;;;;;;5022353;28;20064;-71
2022/11/14 06:38:39;;;;;;;35.78;18.30;;;;;;;;;;5019096;28;20062;-68
2022/11/14 06:41:05;;;;;;;39.63;21.45;;;;;;;;;;5020858;28;20046;-73
2022/11/14 06:43:32;;;;;;;38.22;17.88;;;;;;;;;;5010889;28;20049;-71
2022/11/14 06:45:59;;;;;;;36.35;18.48;;;;;;;;;;5011594;28;20102;-69
2022/11/14 06:48:25;;;;;;;35.13;18.85;;;;;;;;;;5019524;28;20162;-73
2022/11/14 06:50:52;;;;;;;31.33;17.38;;;;;;;;;;5017939;28;20141;-73
2022/11/14 06:53:19;;;;;;;37.15;17.83;;;;;;;;;;5013113;28;20042;-73
2022/11/14 06:55:59;;;;;;;36.45;19.80;;;;;;;;;;5021273;28;20054;-69
2022/11/14 06:58:28;;;;;;;36.83;19.77;;;;;;;;;;5005060;28;20137;-71
2022/11/14 07:00:55;;;;;;;34.38;17.88;;;;;;;;;;5019218;28;20137;-71
2022/11/14 07:03:22;;;;;;;36.53;19.58;;;;;;;;;;5031082;28;20538;-71
2022/11/14 07:05:48;;;;;;;33.05;18.38;;;;;;;;;;5027308;28;20511;-73
2022/11/14 07:08:15;;;;;;;31.90;18.05;;;;;;;;;;5026347;28;20064;-71
2022/11/14 07:10:46;;;;;;;34.05;17.50;;;;;;;;;;5013868;28;20537;-70
2022/11/14 07:13:12;;;;;;;33.78;18.20;;;;;;;;;;5021147;28;20124;-71
2022/11/14 07:15:39;;;;;;;33.55;18.05;;;;;;;;;;5021421;28;20191;-69
2022/11/14 07:18:05;;;;;;;32.92;18.15;;;;;;;;;;5037931;28;20112;-72
2022/11/14 07:20:31;;;;;;;33.08;17.08;;;;;;;;;;5025289;28;20506;-71
2022/11/14 07:22:58;;;;;;;36.88;18.02;;;;;;;;;;5032238;28;20558;-72
2022/11/14 07:25:24;;;;;;;35.92;18.95;;;;;;;;;;5004724;28;20062;-71
2022/11/14 07:27:50;;;;;;;31.40;17.05;;;;;;;;;;5009260;28;20058;-72
2022/11/14 07:30:16;;;;;;;36.92;18.73;;;;;;;;;;5019096;28;20508;-72
2022/11/14 07:32:43;;;;;;;36.35;18.77;;;;;;;;;;5022588;28;20061;-72
2022/11/14 07:35:09;;;;;;;35.70;18.20;;;;;;;;;;5018334;28;20053;-70
2022/11/14 07:37:36;;;;;;;32.60;17.83;;;;;;;;;;5023978;28;20065;-72
2022/11/14 07:40:02;;;;;;;31.88;17.42;;;;;;;;;;5003531;28;20054;-68
2022/11/14 07:42:28;;;;;;;29.02;16.40;;;;;;;;;;5034570;28;20060;-71
2022/11/14 07:44:55;;;;;;;34.95;16.90;;;;;;;;;;5022174;28;20057;-72
2022/11/14 07:47:21;;;;;;;39.15;19.88;;;;;;;;;;5026338;28;20112;-72
2022/11/14 07:49:47;;;;;;;32.08;18.20;;;;;;;;;;5028158;28;20054;-69
2022/11/14 07:52:14;;;;;;;35.40;18.30;;;;;;;;;;5032479;28;20057;-71
2022/11/14 07:54:40;;;;;;;31.98;19.00;;;;;;;;;;5030700;28;20499;-71
2022/11/14 07:57:07;;;;;;;29.85;18.27;;;;;;;;;;5005800;28;20108;-71
2022/11/14 07:59:33;;;;;;;33.58;17.92;;;;;;;;;;5006966;28;20054;-71
2022/11/14 08:01:59;;;;;;;33.70;17.75;;;;;;;;;;5020205;28;20071;-70
2022/11/14 08:04:26;;;;;;;32.65;16.73;;;;;;;;;;5030562;28;20062;-68
2022/11/14 08:06:52;;;;;;;32.40;18.52;;;;;;;;;;5021474;28;20210;-71
2022/11/14 08:09:18;;;;;;;36.38;19.60;;;;;;;;;;5028109;28;20493;-71
2022/11/14 08:11:48;;;;;;;31.83;18.55;;;;;;;;;;5012423;28;20050;-68
2022/11/14 08:14:15;;;;;;;30.67;16.92;;;;;;;;;;5026553;28;20107;-70
2022/11/14 08:16:41;;;;;;;33.67;17.60;;;;;;;;;;5033223;28;20046;-70
2022/11/14 08:19:08;;;;;;;30.98;17.65;;;;;;;;;;5004871;28;20053;-68
2022/11/14 08:21:34;;;;;;;31.67;17.35;;;;;;;;;;5024795;28;20196;-70
2022/11/14 08:24:01;;;;;;;29.83;16.70;;;;;;;;;;5017555;28;20162;-70
2022/11/14 08:26:27;;;;;;;31.13;16.30;;;;;;;;;;5021385;28;20101;-71
2022/11/14 08:28:59;;;;;;;29.98;16.77;;;;;;;;;;5019954;28;20046;-71
2022/11/14 08:31:26;;;;;;;28.75;16.75;;;;;;;;;;5018958;28;20112;-71
2022/11/14 08:33:52;;;;;;;32.45;17.35;;;;;;;;;;5006487;28;20046;-69
2022/11/14 08:36:18;;;;;;;30.85;17.95;;;;;;;;;;5023340;28;20064;-71
2022/11/14 08:38:44;;;;;;;27.27;16.80;;;;;;;;;;5016065;28;20051;-71
2022/11/14 08:41:11;;;;;;;29.52;17.52;;;;;;;;;;5019034;28;20058;-68
2022/11/14 08:43:38;;;;;;;30.52;16.70;;;;;;;;;;5018686;28;20061;-69
2022/11/14 08:46:04;;;;;;;28.38;17.08;;;;;;;;;;5041100;28;20185;-71
2022/11/14 08:48:31;;;;;;;36.75;18.30;;;;;;;;;;5038165;28;20717;-72
2022/11/14 08:51:05;;;;;;;32.45;16.13;;;;;;;;;;5021026;28;20054;-72
2022/11/14 08:53:32;;;;;;;27.35;15.50;;;;;;;;;;5021586;28;20405;-68
2022/11/14 08:55:58;;;;;;;27.15;16.55;;;;;;;;;;5023050;28;20058;-70
2022/11/14 08:58:29;;;;;;;28.92;16.40;;;;;;;;;;5021949;28;20515;-71
2022/11/14 09:01:06;;;;;;;31.23;17.52;;;;;;;;;;5023434;28;20578;-70
2022/11/14 09:03:32;;;;;;;29.17;16.85;;;;;;;;;;5015847;28;20049;-69
2022/11/14 09:05:59;;;;;;;28.73;15.25;;;;;;;;;;5020509;28;20045;-72
2022/11/14 09:08:26;;;;;;;25.63;15.27;;;;;;;;;;5020185;28;20057;-71
2022/11/14 09:10:53;;;;;;;24.85;15.20;;;;;;;;;;5019773;28;20057;-72
2022/11/14 09:13:19;;;;;;;31.40;17.15;;;;;;;;;;5049686;28;20054;-71
2022/11/14 09:15:45;;;;;;;31.25;16.73;;;;;;;;;;5017559;28;20050;-71
2022/11/14 09:18:12;;;;;;;27.13;15.60;;;;;;;;;;5029976;28;20046;-70
2022/11/14 09:20:38;;;;;;;28.08;15.30;;;;;;;;;;5031920;28;20423;-69
2022/11/14 09:23:06;;;;;;;32.90;15.60;;;;;;;;;;5021825;28;20626;-68
2022/11/14 09:25:32;;;;;;;31.13;17.17;;;;;;;;;;5028420;28;20061;-70
2022/11/14 09:28:02;;;;;;;27.05;15.60;;;;;;;;;;5054026;28;20057;-71
2022/11/14 09:30:28;;;;;;;29.83;15.85;;;;;;;;;;5022383;28;20579;-69
2022/11/14 09:32:57;;;;;;;30.13;16.00;;;;;;;;;;5029711;28;20109;-70
2022/11/14 09:35:24;;;;;;;27.58;15.88;;;;;;;;;;5021951;28;20330;-70
2022/11/14 09:37:57;;;;;;;24.90;14.90;;;;;;;;;;5023607;28;20085;-70
2022/11/14 09:40:23;;;;;;;25.90;14.75;;;;;;;;;;5022077;28;20054;-68
2022/11/14 09:43:04;;;;;;;33.33;15.60;;;;;;;;;;5022564;28;20109;-68
2022/11/14 09:45:32;;;;;;;25.75;15.27;;;;;;;;;;5021275;28;20053;-69
2022/11/14 09:48:05;;;;;;;23.20;14.50;;;;;;;;;;5022547;28;20058;-67
2022/11/14 09:50:32;;;;;;;27.25;15.80;;;;;;;;;;5023047;28;20058;-68
2022/11/14 09:53:21;;;;;;;25.13;15.32;;;;;;;;;;5018577;28;20054;-67
2022/11/14 09:55:47;;;;;;;24.98;14.98;;;;;;;;;;5040548;28;20060;-66
2022/11/14 09:58:18;;;;;;;23.48;14.75;;;;;;;;;;5024348;28;20054;-66
2022/11/14 10:00:59;;;;;;;26.52;14.88;;;;;;;;;;5020948;28;20589;-66
2022/11/14 10:03:47;;;;;;;23.40;15.15;;;;;;;;;;5026771;28;20116;-68
2022/11/14 10:06:24;;;;;;;24.92;14.95;;;;;;;;;;5020135;28;20050;-67
2022/11/14 10:08:53;;;;;;;21.77;14.45;;;;;;;;;;5010380;28;20619;-68
2022/11/14 10:11:28;;;;;;;24.38;14.35;;;;;;;;;;5021017;28;20065;-66
2022/11/14 10:13:58;;;;;;;28.90;15.75;;;;;;;;;;5019180;28;20054;-68
2022/11/14 10:16:36;;;;;;;24.10;14.05;;;;;;;;;;5008741;28;20058;-67
2022/11/14 10:19:02;;;;;;;22.73;14.32;;;;;;;;;;5007138;28;20053;-66
2022/11/14 10:21:42;;;;;;;22.63;14.45;;;;;;;;;;5024311;28;20057;-68
2022/11/14 10:24:47;;;;;;;21.48;13.45;;;;;;;;;;5028688;28;20053;-65
2022/11/14 10:27:32;;;;;;;19.15;12.88;;;;;;;;;;5018661;28;20050;-70
2022/11/14 10:30:04;;;;;;;21.33;13.05;;;;;;;;;;5017465;28;20049;-68
2022/11/14 10:32:36;;;;;;;22.00;13.25;;;;;;;;;;5021354;28;20050;-69
2022/11/14 10:35:15;;;;;;;18.80;12.85;;;;;;;;;;5021454;28;20105;-68
2022/11/14 10:37:47;;;;;;;20.10;13.10;;;;;;;;;;5003828;28;20049;-68
2022/11/14 10:40:18;;;;;;;23.73;13.38;;;;;;;;;;5020482;28;20628;-69
2022/11/14 10:42:49;;;;;;;18.05;11.93;;;;;;;;;;5017287;28;20446;-69
2022/11/14 10:45:28;;;;;;;18.13;12.23;;;;;;;;;;5016179;28;20064;-69
2022/11/14 10:47:57;;;;;;;21.15;12.73;;;;;;;;;;5016397;28;20584;-70
2022/11/14 10:50:25;;;;;;;23.95;12.38;;;;;;;;;;5019764;28;20054;-69
2022/11/14 10:52:55;;;;;;;19.50;12.57;;;;;;;;;;5018234;28;20060;-70
2022/11/14 10:55:23;;;;;;;20.77;13.15;;;;;;;;;;5013841;28;20467;-70
2022/11/14 10:58:11;;;;;;;19.42;12.90;;;;;;;;;;5024521;28;20136;-68
2022/11/14 11:00:38;;;;;;;20.65;12.45;;;;;;;;;;5018980;28;20161;-67
2022/11/14 11:03:04;;;;;;;22.33;13.73;;;;;;;;;;5019886;28;20136;-69
2022/11/14 11:05:43;;;;;;;20.90;12.98;;;;;;;;;;5020815;28;20068;-68
2022/11/14 11:11:31;;;;;;;19.10;12.50;;;;;;;;;;5014383;28;20054;-70
2022/11/14 11:13:59;;;;;;;19.30;13.55;;;;;;;;;;5011284;28;20058;-72
2022/11/14 11:16:27;;;;;;;20.27;12.75;;;;;;;;;;5004122;28;20058;-75
2022/11/14 11:19:11;;;;;;;18.77;13.60;;;;;;;;;;5031063;28;20049;-75
2022/11/14 11:21:48;;;;;;;17.33;11.85;;;;;;;;;;5035289;28;20084;-70
2022/11/14 11:24:31;;;;;;;18.35;12.93;;;;;;;;;;5005223;28;20081;-76
2022/11/14 11:27:21;;;;;;;21.63;14.02;;;;;;;;;;5004281;28;20082;-75
2022/11/14 11:30:06;;;;;;;19.13;14.07;;;;;;;;;;5035485;28;20054;-71
2022/11/14 11:32:32;;;;;;;20.73;14.07;;;;;;;;;;5003891;28;20563;-73
2022/11/14 11:35:00;;;;;;;20.00;13.07;;;;;;;;;;5008131;28;20060;-74
2022/11/14 11:37:27;;;;;;;25.38;13.90;;;;;;;;;;5036126;28;20502;-74
2022/11/14 11:39:55;;;;;;;21.13;13.88;;;;;;;;;;5023574;28;20086;-70
2022/11/14 11:42:29;;;;;;;18.63;13.32;;;;;;;;;;5022600;28;20240;-70
2022/11/14 11:45:16;;;;;;;20.08;14.23;;;;;;;;;;5022220;28;20455;-73
2022/11/14 11:48:00;;;;;;;19.25;13.88;;;;;;;;;;5023941;28;20061;-75
2022/11/14 11:50:27;;;;;;;18.52;12.80;;;;;;;;;;5008811;28;20506;-74
2022/11/14 11:53:01;;;;;;;21.55;13.82;;;;;;;;;;5003314;28;20046;-70
2022/11/14 11:55:38;;;;;;;20.92;13.40;;;;;;;;;;5015026;28;20132;-75
2022/11/14 11:58:09;;;;;;;20.67;14.07;;;;;;;;;;5028868;28;20049;-75
2022/11/14 12:00:36;;;;;;;22.98;14.38;;;;;;;;;;5029607;28;20054;-73
2022/11/14 12:03:04;;;;;;;24.05;14.77;;;;;;;;;;5028283;28;20750;-74
2022/11/14 12:05:30;;;;;;;21.60;14.50;;;;;;;;;;5016785;28;20716;-73
2022/11/14 12:08:06;;;;;;;20.95;13.60;;;;;;;;;;5022008;28;20054;-73
2022/11/14 12:10:32;;;;;;;;;;;;;;;;;;5030885;28;20593;-71
2022/11/14 12:13:04;;;;;;;23.20;14.57;;;;;;;;;;5030591;28;46417;-71
2022/11/14 12:15:42;;;;;;;26.13;14.98;;;;;;;;;;5021560;28;20065;-72
2022/11/14 12:18:26;;;;;;;22.38;15.05;;;;;;;;;;5020012;28;20046;-75
2022/11/14 12:21:09;;;;;;;22.80;14.13;;;;;;;;;;5022768;28;20104;-71
2022/11/14 12:23:36;;;;;;;20.10;13.75;;;;;;;;;;5023209;28;20082;-73
2022/11/14 12:26:02;;;;;;;22.23;15.20;;;;;;;;;;5021636;28;20069;-75
2022/11/14 12:28:49;;;;;;;22.80;16.20;;;;;;;;;;5028756;28;20058;-76
2022/11/14 12:31:16;;;;;;;20.92;14.40;;;;;;;;;;5029373;28;20058;-76
2022/11/14 12:33:44;;;;;;;22.40;14.88;;;;;;;;;;5004494;28;20046;-75
2022/11/14 12:36:11;;;;;;;21.77;15.43;;;;;;;;;;5002950;28;20383;-70
2022/11/14 12:38:46;;;;;;;20.42;14.88;;;;;;;;;;5032973;28;20073;-71
2022/11/14 12:41:25;;;;;;;20.83;14.52;;;;;;;;;;5020669;28;20561;-72
2022/11/14 12:43:51;;;;;;;23.85;15.68;;;;;;;;;;5014615;28;20050;-75
2022/11/14 12:46:17;;;;;;;24.85;15.93;;;;;;;;;;5002431;28;20132;-71
2022/11/14 12:48:44;;;;;;;26.92;18.15;;;;;;;;;;5001898;28;20058;-71
2022/11/14 12:51:25;;;;;;;25.60;17.77;;;;;;;;;;5016208;28;20527;-71
2022/11/14 12:53:56;;;;;;;26.05;16.48;;;;;;;;;;5017608;28;20053;-74
2022/11/14 12:56:29;;;;;;;25.80;16.92;;;;;;;;;;5019680;28;20088;-72
2022/11/14 12:59:11;;;;;;;25.55;18.23;;;;;;;;;;5022369;28;20061;-73
2022/11/14 13:02:06;;;;;;;28.05;19.50;;;;;;;;;;5026109;28;20045;-73
2022/11/14 13:04:39;;;;;;;26.42;17.48;;;;;;;;;;5030915;28;20050;-75
2022/11/14 13:07:12;;;;;;;26.27;17.23;;;;;;;;;;5032971;28;20555;-73
2022/11/14 13:09:57;;;;;;;30.05;18.75;;;;;;;;;;5036192;28;20519;-69
2022/11/14 13:23:46;;;;;;;28.50;18.50;;;;;;;;;;5031740;28;20121;-75
2022/11/14 13:26:13;;;;;;;33.53;18.13;;;;;;;;;;5037496;28;20525;-71
2022/11/14 13:28:49;;;;;;;26.40;17.38;;;;;;;;;;5039594;28;20041;-72
2022/11/14 13:31:15;;;;;;;29.30;18.52;;;;;;;;;;5032845;28;20054;-71
2022/11/14 13:33:42;;;;;;;24.70;17.55;;;;;;;;;;5028382;28;20049;-75
2022/11/14 13:36:12;;;;;;;28.00;16.98;;;;;;;;;;5041694;28;20049;-75
2022/11/14 13:38:41;;;;;;;28.25;18.13;;;;;;;;;;5038474;28;20653;-73
2022/11/14 13:41:14;;;;;;;29.92;19.00;;;;;;;;;;5034887;28;20050;-71
2022/11/14 13:44:00;;;;;;;26.38;17.70;;;;;;;;;;5032008;28;20564;-70
2022/11/14 13:46:29;;;;;;;30.98;19.83;;;;;;;;;;5016354;28;20061;-74
2022/11/14 13:49:08;;;;;;;28.48;17.75;;;;;;;;;;5016795;28;20498;-73
2022/11/14 13:51:34;;;;;;;25.25;17.65;;;;;;;;;;5030022;28;20058;-74
2022/11/14 13:54:10;;;;;;;29.83;19.00;;;;;;;;;;5043256;28;20070;-74
2022/11/14 13:56:54;;;;;;;33.03;19.55;;;;;;;;;;5014511;28;20597;-72
2022/11/14 13:59:26;;;;;;;30.92;18.63;;;;;;;;;;5051865;28;20079;-71
2022/11/14 14:02:01;;;;;;;30.48;18.15;;;;;;;;;;5033462;28;20061;-72
2022/11/14 14:04:33;;;;;;;29.52;19.33;;;;;;;;;;5016408;28;20187;-73
2022/11/14 14:07:06;;;;;;;28.40;19.67;;;;;;;;;;5037933;28;20062;-73
2022/11/14 14:09:32;;;;;;;30.13;20.13;;;;;;;;;;5044267;28;20057;-76
2022/11/14 14:11:58;;;;;;;31.63;20.05;;;;;;;;;;5012449;28;20049;-73
2022/11/14 14:14:27;;;;;;;30.17;18.90;;;;;;;;;;5009705;28;20058;-72
2022/11/14 14:16:56;;;;;;;30.83;20.45;;;;;;;;;;5015122;28;20560;-76
2022/11/14 14:19:41;;;;;;;33.08;19.95;;;;;;;;;;5016965;28;20057;-74
2022/11/14 14:22:11;;;;;;;29.00;18.90;;;;;;;;;;5019148;28;20539;-75
2022/11/14 14:25:04;;;;;;;28.95;19.17;;;;;;;;;;5004519;28;20432;-73
2022/11/14 14:27:36;;;;;;;32.85;19.02;;;;;;;;;;5010897;28;20413;-72
2022/11/14 14:30:08;;;;;;;30.25;19.55;;;;;;;;;;5005996;28;20050;-75
2022/11/14 14:32:34;;;;;;;31.00;19.45;;;;;;;;;;5008574;28;20436;-74
2022/11/14 14:35:19;;;;;;;31.77;20.40;;;;;;;;;;5010238;28;20054;-74
2022/11/14 14:37:49;;;;;;;32.17;20.25;;;;;;;;;;5012341;28;20042;-72
2022/11/14 14:40:23;;;;;;;33.17;20.23;;;;;;;;;;5010406;28;20073;-75
2022/11/14 14:42:50;;;;;;;33.65;20.67;;;;;;;;;;5015725;28;20395;-76
2022/11/14 14:45:21;;;;;;;38.33;21.90;;;;;;;;;;5013146;28;20068;-74